createdAt,value
2022-12-20T00:01:37.625Z,-28.2
2022-12-20T00:05:41.170Z,-28.3
2022-12-20T00:07:42.803Z,-28.2
2022-12-20T00:09:44.291Z,-28.3
2022-12-20T00:11:45.390Z,-28.2
2022-12-20T00:17:51.053Z,-28.2
2022-12-20T00:19:52.338Z,-28
2022-12-20T00:21:53.383Z,-28.2
2022-12-20T00:23:54.608Z,-28.3
2022-12-20T00:25:55.849Z,-28
2022-12-20T00:27:56.899Z,-28.3
2022-12-20T00:29:58.133Z,-28.2
2022-12-20T00:31:59.513Z,-28
2022-12-20T00:34:01.066Z,-28.2
2022-12-20T00:36:02.675Z,-28.2
2022-12-20T00:38:04.154Z,-28
2022-12-20T00:40:05.881Z,-28.2
2022-12-20T00:42:07.931Z,-28.2
2022-12-20T00:44:09.413Z,-28.1
2022-12-20T00:46:10.857Z,-28.2
2022-12-20T00:48:12.608Z,-27.9
2022-12-20T00:50:14.228Z,-28
2022-12-20T00:52:15.746Z,-28.3
2022-12-20T00:54:17.724Z,-28.2
2022-12-20T00:56:19.567Z,-28
2022-12-20T00:58:20.771Z,-28.2
2022-12-20T01:00:22.125Z,-28.2
2022-12-20T01:02:24.326Z,-28.2
2022-12-20T01:04:25.417Z,-28.1
2022-12-20T01:06:27.218Z,-28
2022-12-20T01:08:28.240Z,-28.3
2022-12-20T01:10:29.843Z,-28.2
2022-12-20T01:16:33.744Z,-28
2022-12-20T01:18:35.751Z,-28
2022-12-20T01:20:37.414Z,-27.9
2022-12-20T01:24:40.527Z,-28.1
2022-12-20T01:26:41.827Z,-28.3
2022-12-20T01:30:44.628Z,-28.2
2022-12-20T01:32:46.301Z,-28
2022-12-20T01:34:47.573Z,-28.2
2022-12-20T01:36:49.058Z,-27.7
2022-12-20T01:42:53.029Z,-28
2022-12-20T01:46:55.952Z,-28.3
2022-12-20T01:48:57.311Z,-28
2022-12-20T01:50:58.649Z,-28
2022-12-20T01:52:59.689Z,-28.3
2022-12-20T01:57:02.995Z,-28.2
2022-12-20T01:59:04.802Z,-28.2
2022-12-20T02:01:06.595Z,-28.3
2022-12-20T02:03:08.395Z,-28.2
2022-12-20T02:05:09.863Z,-28.4
2022-12-20T02:07:11.662Z,-28
2022-12-20T02:09:12.790Z,-28.2
2022-12-20T02:11:14.484Z,-27.8
2022-12-20T02:13:15.870Z,-28.2
2022-12-20T02:15:17.844Z,-28
2022-12-20T02:17:19.685Z,-27.9
2022-12-20T02:19:21.655Z,-27.9
2022-12-20T02:21:22.834Z,-27.9
2022-12-20T02:23:24.145Z,-28
2022-12-20T02:25:25.928Z,-28.1
2022-12-20T02:29:29.252Z,-28.2
2022-12-20T02:31:31.055Z,-28.3
2022-12-20T02:33:32.669Z,-28.1
2022-12-20T02:35:33.889Z,-28
2022-12-20T02:39:37.225Z,-28
2022-12-20T02:41:38.707Z,-28.2
2022-12-20T02:43:40.273Z,-28.4
2022-12-20T02:45:41.886Z,-28.2
2022-12-20T02:47:42.937Z,-28.3
2022-12-20T02:49:44.459Z,-28
2022-12-20T02:51:45.875Z,-27.9
2022-12-20T02:53:47.146Z,-28.3
2022-12-20T02:55:48.884Z,-28
2022-12-20T02:57:54.725Z,-28.2
2022-12-20T02:59:52.250Z,-28.1
2022-12-20T03:01:54.047Z,-28.3
2022-12-20T03:03:55.616Z,-28.3
2022-12-20T03:05:57.293Z,-28.2
2022-12-20T03:07:59.274Z,-27.9
2022-12-20T03:12:01.977Z,-28
2022-12-20T03:14:02.865Z,-27.9
2022-12-20T03:16:04.508Z,-28.1
2022-12-20T03:18:06.254Z,-28.2
2022-12-20T03:24:10.721Z,-28
2022-12-20T03:26:11.954Z,-28.3
2022-12-20T03:28:13.567Z,-28.3
2022-12-20T03:30:15.049Z,-27.9
2022-12-20T03:32:16.733Z,-28.3
2022-12-20T03:34:18.438Z,-28.2
2022-12-20T03:36:19.821Z,-28.5
2022-12-20T03:38:21.097Z,-28.3
2022-12-20T03:40:22.795Z,-28.3
2022-12-20T03:42:23.957Z,-28.2
2022-12-20T03:44:25.128Z,-28.3
2022-12-20T03:46:26.728Z,-28.2
2022-12-20T03:48:28.657Z,-28.3
2022-12-20T03:50:30.297Z,-28.2
2022-12-20T03:52:31.698Z,-28.2
2022-12-20T03:54:33.746Z,-28
2022-12-20T03:56:35.615Z,-28.4
2022-12-20T03:58:36.704Z,-28.2
2022-12-20T04:00:37.927Z,-28.2
2022-12-20T04:02:39.820Z,-28.2
2022-12-20T04:06:42.503Z,-28.2
2022-12-20T04:08:44.229Z,-28.2
2022-12-20T04:10:45.869Z,-28.3
2022-12-20T04:12:46.956Z,-28
2022-12-20T04:14:48.904Z,-28.2
2022-12-20T04:16:50.795Z,-28
2022-12-20T04:20:53.815Z,-27.9
2022-12-20T04:22:55.492Z,-27.9
2022-12-20T04:24:57.145Z,-28.4
2022-12-20T04:26:58.819Z,-28
2022-12-20T04:29:00.363Z,-28.4
2022-12-20T04:31:01.756Z,-28.4
2022-12-20T04:33:03.824Z,-28
2022-12-20T04:35:05.048Z,-28.2
2022-12-20T04:37:06.920Z,-28.3
2022-12-20T04:39:07.987Z,-28
2022-12-20T04:41:10.014Z,-28.3
2022-12-20T04:43:11.497Z,-28
2022-12-20T04:45:12.618Z,-27.9
2022-12-20T04:47:13.724Z,-27.7
2022-12-20T04:49:15.506Z,-28
2022-12-20T04:51:16.652Z,-28.4
2022-12-20T04:53:18.057Z,-28.2
2022-12-20T04:55:19.106Z,-28.3
2022-12-20T04:57:20.409Z,-28.4
2022-12-20T04:59:21.697Z,-28.1
2022-12-20T05:05:26.672Z,-28.3
2022-12-20T05:07:28.783Z,-28
2022-12-20T05:09:30.463Z,-28
2022-12-20T05:11:32.437Z,-28.2
2022-12-20T05:13:34.345Z,-28
2022-12-20T05:15:36.471Z,-28.1
2022-12-20T05:17:38.353Z,-28.2
2022-12-20T05:19:39.826Z,-28
2022-12-20T05:21:41.342Z,-28
2022-12-20T05:23:42.732Z,-28.2
2022-12-20T05:25:44.363Z,-28.2
2022-12-20T05:27:45.544Z,-28.5
2022-12-20T05:31:48.771Z,-28.2
2022-12-20T05:32:32.608Z,-27.9
2022-12-20T05:36:35.845Z,-28.2
2022-12-20T05:42:40.374Z,-28.2
2022-12-20T05:44:41.900Z,-28
2022-12-20T05:46:43.100Z,-28.2
2022-12-20T05:48:44.087Z,-27.8
2022-12-20T05:50:46.060Z,-28
2022-12-20T05:52:47.459Z,-28.1
2022-12-20T05:56:50.180Z,-28.3
2022-12-20T05:58:52.068Z,-28.4
2022-12-20T06:02:56.025Z,-28.2
2022-12-20T06:04:57.562Z,-28
2022-12-20T06:06:58.595Z,-28.1
2022-12-20T06:09:00.085Z,-28
2022-12-20T06:13:03.091Z,-28.2
2022-12-20T06:15:04.976Z,-28
2022-12-20T06:17:06.452Z,-28.1
2022-12-20T06:19:07.889Z,-27.9
2022-12-20T06:25:13.360Z,-28.3
2022-12-20T06:27:15.076Z,-28.2
2022-12-20T06:29:16.184Z,-28
2022-12-20T06:31:17.631Z,-28.2
2022-12-20T06:33:18.999Z,-28
2022-12-20T06:35:20.640Z,-28
2022-12-20T06:39:23.171Z,-28.2
2022-12-20T06:41:24.915Z,-28.2
2022-12-20T06:43:26.474Z,-28.2
2022-12-20T06:45:28.091Z,-28.2
2022-12-20T06:49:32.069Z,-28.3
2022-12-20T06:51:33.843Z,-28.2
2022-12-20T06:55:37.821Z,-28.1
2022-12-20T06:57:39.603Z,-27.9
2022-12-20T06:59:41.679Z,-28
2022-12-20T07:01:43.473Z,-28.3
2022-12-20T07:07:48.085Z,-28
2022-12-20T07:09:50.257Z,-28.2
2022-12-20T07:11:51.802Z,-27.9
2022-12-20T07:13:53.571Z,-28
2022-12-20T07:15:55.663Z,-28.2
2022-12-20T07:17:57.418Z,-28.1
2022-12-20T07:19:59.254Z,-28.3
2022-12-20T07:22:00.840Z,-28.3
2022-12-20T07:24:02.624Z,-28.2
2022-12-20T07:28:05.863Z,-28
2022-12-20T07:30:07.403Z,-28.2
2022-12-20T07:32:08.608Z,-28.2
2022-12-20T07:34:10.045Z,-28
2022-12-20T07:36:11.660Z,-28.3
2022-12-20T07:38:12.966Z,-28.1
2022-12-20T07:40:14.380Z,-28
2022-12-20T07:42:15.969Z,-28.3
2022-12-20T07:44:17.522Z,-28.4
2022-12-20T07:50:21.609Z,-28.2
2022-12-20T07:52:23.579Z,-28.2
2022-12-20T07:54:25.310Z,-28
2022-12-20T07:56:26.493Z,-28.6
2022-12-20T07:58:28.471Z,-28.2
2022-12-20T08:00:29.740Z,-28.2
2022-12-20T08:02:31.288Z,-28.1
2022-12-20T08:04:32.813Z,-28.3
2022-12-20T08:06:34.164Z,-28
2022-12-20T08:10:37.926Z,-28
2022-12-20T08:12:39.754Z,-28.2
2022-12-20T08:14:41.180Z,-27.9
2022-12-20T08:16:42.296Z,-28
2022-12-20T08:20:45.407Z,-27.9
2022-12-20T08:22:46.868Z,-28.3
2022-12-20T08:24:48.405Z,-28.3
2022-12-20T08:26:49.986Z,-28
2022-12-20T08:32:54.608Z,-28.1
2022-12-20T08:34:56.514Z,-28.2
2022-12-20T08:36:58.138Z,-28.4
2022-12-20T08:38:59.606Z,-28.2
2022-12-20T08:41:01.605Z,-28
2022-12-20T08:43:08.314Z,-28
2022-12-20T08:47:05.569Z,-28.1
2022-12-20T08:49:06.629Z,-28.2
2022-12-20T08:51:08.380Z,-28.1
2022-12-20T08:53:10.148Z,-28.2
2022-12-20T08:57:13.553Z,-28.3
2022-12-20T08:59:15.447Z,-28.3
2022-12-20T09:03:18.511Z,-27.9
2022-12-20T09:05:19.842Z,-27.9
2022-12-20T09:07:21.897Z,-28.2
2022-12-20T09:09:23.060Z,-28.3
2022-12-20T09:13:26.481Z,-22.9
2022-12-20T09:15:28.023Z,-18.9
2022-12-20T09:17:29.889Z,-18.4
2022-12-20T09:19:31.154Z,-19.6
2022-12-20T09:23:34.857Z,-17.2
2022-12-20T09:25:36.054Z,-14.2
2022-12-20T09:27:37.172Z,-12.1
2022-12-20T09:29:38.289Z,-10.8
2022-12-20T09:31:39.679Z,-13.8
2022-12-20T09:33:40.695Z,-14.6
2022-12-20T09:35:42.367Z,-17.6
2022-12-20T09:37:43.936Z,-19.2
2022-12-20T09:41:47.179Z,-19.2
2022-12-20T09:45:49.939Z,-15.4
2022-12-20T09:47:51.486Z,-9.1
2022-12-20T09:49:52.989Z,-4.3
2022-12-20T09:51:54.782Z,-7
2022-12-20T09:53:56.830Z,-8.5
2022-12-20T09:55:58.812Z,-7
2022-12-20T09:58:00.947Z,-10
2022-12-20T10:00:02.655Z,-12.4
2022-12-20T10:02:26.770Z,-11.9
2022-12-20T10:06:07.809Z,-8.1
2022-12-20T10:08:09.554Z,-7.3
2022-12-20T10:10:10.701Z,-10.2
2022-12-20T10:12:12.033Z,-12.9
2022-12-20T10:14:13.433Z,-17.6
2022-12-20T10:16:14.468Z,-23.2
2022-12-20T10:18:15.788Z,-25.5
2022-12-20T10:20:17.026Z,-28.2
2022-12-20T10:24:19.811Z,-28
2022-12-20T10:28:22.634Z,-28.4
2022-12-20T10:30:24.200Z,-27.9
2022-12-20T10:32:26.383Z,-28.2
2022-12-20T10:34:28.855Z,-28.3
2022-12-20T10:40:53.688Z,-28.2
2022-12-20T10:42:32.486Z,-28.2
2022-12-20T10:44:33.550Z,-24.5
2022-12-20T10:46:35.656Z,-19.2
2022-12-20T10:48:36.889Z,-17.79
2022-12-20T10:50:38.272Z,-21.5
2022-12-20T10:52:39.611Z,-23.6
2022-12-20T10:54:40.756Z,-20.29
2022-12-20T10:56:42.544Z,-18.29
2022-12-20T10:58:43.542Z,-17.9
2022-12-20T11:00:44.598Z,-19.7
2022-12-20T11:02:45.898Z,-18.5
2022-12-20T11:04:47.158Z,-21.4
2022-12-20T11:06:48.460Z,-27.1
2022-12-20T11:08:52.694Z,-28.3
2022-12-20T11:10:51.202Z,-27.9
2022-12-20T11:12:52.867Z,-28
2022-12-20T11:14:54.368Z,-28.5
2022-12-20T11:16:56.136Z,-28.2
2022-12-20T11:23:00.262Z,-28.3
2022-12-20T11:25:02.020Z,-28.4
2022-12-20T11:27:03.793Z,-28.2
2022-12-20T11:29:05.479Z,-28.4
2022-12-20T11:31:07.356Z,-28.4
2022-12-20T11:33:08.769Z,-28.3
2022-12-20T11:39:13.329Z,-28
2022-12-20T11:41:15.196Z,-28.4
2022-12-20T11:43:17.066Z,-28
2022-12-20T11:45:18.527Z,-28
2022-12-20T11:47:20.200Z,-27.9
2022-12-20T11:49:21.477Z,-22.3
2022-12-20T11:51:26.545Z,-18
2022-12-20T11:53:24.459Z,-19.29
2022-12-20T11:55:25.566Z,-20.6
2022-12-20T11:57:27.455Z,-21
2022-12-20T11:59:28.592Z,-20.8
2022-12-20T12:01:29.658Z,-20.9
2022-12-20T12:03:31.077Z,-21.1
2022-12-20T12:05:32.533Z,-20.2
2022-12-20T12:07:33.875Z,-20.29
2022-12-20T12:09:35.561Z,-21.3
2022-12-20T12:12:07.667Z,-23.7
2022-12-20T12:13:38.617Z,-26.2
2022-12-20T12:15:40.168Z,-26
2022-12-20T12:17:41.886Z,-25.5
2022-12-20T12:20:27.358Z,-26
2022-12-20T12:22:28.902Z,-26.1
2022-12-20T12:24:30.199Z,-26.2
2022-12-20T12:26:40.857Z,-28.3
2022-12-20T12:28:33.757Z,-28.3
2022-12-20T12:32:36.337Z,-28.1
2022-12-20T12:34:37.791Z,-28.4
2022-12-20T12:36:39.409Z,-28
2022-12-20T12:38:40.565Z,-28.3
2022-12-20T12:40:44.863Z,-29
2022-12-20T12:42:43.871Z,-27.9
2022-12-20T12:46:47.504Z,-28.2
2022-12-20T12:48:48.978Z,-28.4
2022-12-20T12:50:50.288Z,-28.4
2022-12-20T12:52:51.915Z,-28.4
2022-12-20T12:54:53.645Z,-28.4
2022-12-20T12:56:55.178Z,-28.2
2022-12-20T12:58:56.203Z,-28
2022-12-20T13:00:57.674Z,-28.3
2022-12-20T13:02:59.366Z,-28.3
2022-12-20T13:05:00.797Z,-28.1
2022-12-20T13:09:03.471Z,-20.9
2022-12-20T13:11:04.616Z,-24.7
2022-12-20T13:13:05.957Z,-28.1
2022-12-20T13:15:07.607Z,-28.2
2022-12-20T13:17:13.675Z,-28.2
2022-12-20T13:19:10.157Z,-28
2022-12-20T13:21:11.847Z,-28.3
2022-12-20T13:23:13.171Z,-28
2022-12-20T13:25:14.768Z,-28
2022-12-20T13:31:18.602Z,-28
2022-12-20T13:33:19.721Z,-28.3
2022-12-20T13:35:20.708Z,-28
2022-12-20T13:37:22.510Z,-28.3
2022-12-20T13:39:23.796Z,-28.2
2022-12-20T13:41:29.525Z,-28.3
2022-12-20T13:45:28.925Z,-25.4
2022-12-20T13:47:30.581Z,-27
2022-12-20T13:49:32.333Z,-28.1
2022-12-20T13:51:34.039Z,-28.2
2022-12-20T13:57:38.032Z,-28.1
2022-12-20T13:59:39.326Z,-28.1
2022-12-20T14:01:41.059Z,-23.6
2022-12-20T14:03:42.353Z,-20.8
2022-12-20T14:05:43.997Z,-20.1
2022-12-20T14:07:45.127Z,-25.7
2022-12-20T14:09:46.462Z,-28
2022-12-20T14:11:47.748Z,-28.4
2022-12-20T14:13:49.028Z,-28.2
2022-12-20T14:15:50.924Z,-28.2
2022-12-20T14:17:52.679Z,-28.2
2022-12-20T14:19:53.934Z,-28
2022-12-20T14:21:55.716Z,-28
2022-12-20T14:23:57.508Z,-28.2
2022-12-20T14:25:59.476Z,-28
2022-12-20T14:28:00.797Z,-28.2
2022-12-20T14:30:02.067Z,-28.2
2022-12-20T14:32:04.017Z,-28.3
2022-12-20T14:34:05.249Z,-28.2
2022-12-20T14:36:07.138Z,-28.3
2022-12-20T14:40:10.808Z,-28.3
2022-12-20T14:42:12.705Z,-28.2
2022-12-20T14:44:14.412Z,-28.6
2022-12-20T14:46:16.186Z,-28.4
2022-12-20T14:48:17.560Z,-28.4
2022-12-20T14:50:18.689Z,-28.2
2022-12-20T14:52:20.328Z,-28.3
2022-12-20T14:54:56.476Z,-28.4
2022-12-20T14:56:28.034Z,-28.3
2022-12-20T14:58:25.442Z,-28.4
2022-12-20T15:00:27.456Z,-28.3
2022-12-20T15:02:28.630Z,-28.4
2022-12-20T15:04:29.511Z,-28.3
2022-12-20T15:06:31.034Z,-28.1
2022-12-20T15:08:32.321Z,-28.3
2022-12-20T15:10:33.789Z,-28.3
2022-12-20T15:12:38.909Z,-28.2
2022-12-20T15:14:37.000Z,-28.2
2022-12-20T15:16:38.219Z,-28.2
2022-12-20T15:18:39.673Z,-28.2
2022-12-20T15:20:40.819Z,-28.2
2022-12-20T15:22:41.982Z,-28
2022-12-20T15:26:45.359Z,-27.9
2022-12-20T15:28:47.256Z,-28.3
2022-12-20T15:32:55.420Z,-28.3
2022-12-20T15:36:53.323Z,-28.5
2022-12-20T15:39:11.745Z,-28.3
2022-12-20T15:40:57.277Z,-28.2
2022-12-20T15:42:59.337Z,-28.4
2022-12-20T15:45:01.042Z,-28.3
2022-12-20T15:47:02.335Z,-28.3
2022-12-20T15:49:04.190Z,-27.8
2022-12-20T15:51:05.606Z,-28.2
2022-12-20T15:53:07.392Z,-28.5
2022-12-20T15:55:08.830Z,-28.3
2022-12-20T15:57:10.128Z,-28
2022-12-20T15:59:32.744Z,-28
2022-12-20T16:01:13.241Z,-28
2022-12-20T16:03:14.782Z,-28.3
2022-12-20T16:05:16.389Z,-28.2
2022-12-20T16:09:18.954Z,-28.2
2022-12-20T16:11:20.451Z,-28.3
2022-12-20T16:13:21.924Z,-28.1
2022-12-20T16:15:23.087Z,-28.4
2022-12-20T16:21:27.932Z,-28.2
2022-12-20T16:23:29.063Z,-28.3
2022-12-20T16:25:30.392Z,-28.2
2022-12-20T16:27:32.429Z,-28.2
2022-12-20T16:29:34.060Z,-28.4
2022-12-20T16:31:35.623Z,-28.2
2022-12-20T16:33:37.096Z,-28.2
2022-12-20T16:35:38.348Z,-28.2
2022-12-20T16:37:39.786Z,-28.2
2022-12-20T16:39:41.072Z,-28.3
2022-12-20T16:41:42.267Z,-28.3
2022-12-20T16:43:43.663Z,-28.4
2022-12-20T16:45:44.984Z,-28.3
2022-12-20T16:47:46.237Z,-28
2022-12-20T16:49:52.601Z,-28.2
2022-12-20T16:51:49.126Z,-28.3
2022-12-20T16:54:17.747Z,-28.1
2022-12-20T16:57:54.035Z,-28.3
2022-12-20T16:59:55.857Z,-28.5
2022-12-20T17:01:57.921Z,-28.4
2022-12-20T17:03:59.588Z,-27.9
2022-12-20T17:06:01.513Z,-28.3
2022-12-20T17:08:02.945Z,-28.3
2022-12-20T17:10:04.592Z,-28.2
2022-12-20T17:12:05.962Z,-27.9
2022-12-20T17:14:12.200Z,-28.2
2022-12-20T17:20:11.319Z,-28.4
2022-12-20T17:22:27.973Z,-28.1
2022-12-20T17:24:14.249Z,-28.2
2022-12-20T17:26:15.328Z,-28.4
2022-12-20T17:28:17.349Z,-28.2
2022-12-20T17:30:18.976Z,-28.1
2022-12-20T17:32:20.730Z,-28
2022-12-20T17:34:22.773Z,-28.2
2022-12-20T17:36:24.547Z,-28
2022-12-20T17:40:27.624Z,-28.1
2022-12-20T17:42:31.322Z,-28.2
2022-12-20T17:44:30.468Z,-28.3
2022-12-20T17:46:32.490Z,-28.2
2022-12-20T17:48:37.732Z,-28.2
2022-12-20T17:50:36.668Z,-28.2
2022-12-20T17:52:38.101Z,-27.9
2022-12-20T17:54:40.382Z,-28.4
2022-12-20T17:56:41.199Z,-28.2
2022-12-20T18:02:46.337Z,-28.3
2022-12-20T18:04:47.397Z,-28
2022-12-20T18:06:48.392Z,-28.2
2022-12-20T18:08:49.895Z,-28.1
2022-12-20T18:10:51.776Z,-28.2
2022-12-20T18:12:53.376Z,-28.3
2022-12-20T18:14:54.799Z,-28.5
2022-12-20T18:16:56.414Z,-28
2022-12-20T18:18:58.318Z,-28.2
2022-12-20T18:23:01.236Z,-28.2
2022-12-20T18:25:02.904Z,-28
2022-12-20T18:27:04.711Z,-28.4
2022-12-20T18:29:06.868Z,-28
2022-12-20T18:31:08.562Z,-28.3
2022-12-20T18:33:10.013Z,-28
2022-12-20T18:35:11.972Z,-28.4
2022-12-20T18:37:13.706Z,-28.4
2022-12-20T18:39:14.969Z,-28.2
2022-12-20T18:43:19.081Z,-28.2
2022-12-20T18:45:21.143Z,-28.3
2022-12-20T18:47:22.465Z,-28.3
2022-12-20T18:49:24.148Z,-28.3
2022-12-20T18:51:26.088Z,-28.4
2022-12-20T18:53:27.067Z,-28
2022-12-20T18:55:28.509Z,-28.4
2022-12-20T18:57:30.068Z,-28.1
2022-12-20T18:59:31.636Z,-28.3
2022-12-20T19:01:33.405Z,-28.2
2022-12-20T19:06:20.051Z,-28
2022-12-20T19:10:23.057Z,-28
2022-12-20T19:12:24.578Z,-27.9
2022-12-20T19:14:25.998Z,-28.3
2022-12-20T19:16:27.268Z,-28
2022-12-20T19:22:31.700Z,-28.2
2022-12-20T19:24:33.825Z,-28.4
2022-12-20T19:26:35.192Z,-28.2
2022-12-20T19:28:36.828Z,-27.9
2022-12-20T19:30:39.011Z,-27.9
2022-12-20T19:32:40.434Z,-28.2
2022-12-20T19:34:42.487Z,-28.4
2022-12-20T19:36:44.543Z,-28.2
2022-12-20T19:38:45.649Z,-28.2
2022-12-20T19:42:48.603Z,-28.2
2022-12-20T19:44:50.218Z,-28.4
2022-12-20T19:46:51.831Z,-28
2022-12-20T19:48:53.251Z,-28.3
2022-12-20T19:50:55.017Z,-28.2
2022-12-20T19:52:56.789Z,-28.2
2022-12-20T19:54:57.910Z,-28.2
2022-12-20T19:56:59.125Z,-28.3
2022-12-20T19:59:01.148Z,-28.3
2022-12-20T20:05:09.515Z,-28.3
2022-12-20T20:07:07.079Z,-28.2
2022-12-20T20:09:08.673Z,-28
2022-12-20T20:11:10.357Z,-28.4
2022-12-20T20:13:11.675Z,-28
2022-12-20T20:15:12.867Z,-28.4
2022-12-20T20:19:15.452Z,-28
2022-12-20T20:21:16.824Z,-28.3
2022-12-20T20:23:18.585Z,-28.2
2022-12-20T20:25:20.521Z,-28
2022-12-20T20:29:24.328Z,-28.3
2022-12-20T20:31:25.904Z,-28.5
2022-12-20T20:35:29.175Z,-28.3
2022-12-20T20:37:30.715Z,-28.4
2022-12-20T20:39:31.996Z,-28.3
2022-12-20T20:41:33.072Z,-28.2
2022-12-20T20:45:36.387Z,-28.2
2022-12-20T20:47:37.629Z,-28.3
2022-12-20T20:49:39.519Z,-28.2
2022-12-20T20:51:41.452Z,-28.2
2022-12-20T20:55:44.702Z,-28.1
2022-12-20T20:57:46.254Z,-28.2
2022-12-20T21:01:49.564Z,-28.3
2022-12-20T21:03:50.544Z,-28.5
2022-12-20T21:06:32.684Z,-28.5
2022-12-20T21:07:53.517Z,-28.5
2022-12-20T21:13:58.492Z,-28
2022-12-20T21:15:59.798Z,-28.4
2022-12-20T21:18:01.057Z,-28.4
2022-12-20T21:20:02.875Z,-28.4
2022-12-20T21:22:04.613Z,-28.3
2022-12-20T21:24:05.737Z,-28.1
2022-12-20T21:26:07.187Z,-28.3
2022-12-20T21:28:08.402Z,-28.3
2022-12-20T21:30:09.825Z,-28.2
2022-12-20T21:32:10.892Z,-28.3
2022-12-20T21:34:12.839Z,-28.3
2022-12-20T21:36:14.028Z,-28.2
2022-12-20T21:38:15.721Z,-28
2022-12-20T21:40:17.108Z,-28
2022-12-20T21:44:19.314Z,-28.4
2022-12-20T21:46:21.045Z,-28.3
2022-12-20T21:48:22.470Z,-28.3
2022-12-20T21:50:24.034Z,-28.3
2022-12-20T21:52:25.499Z,-28.3
2022-12-20T21:54:26.720Z,-28.4
2022-12-20T21:56:28.334Z,-28.3
2022-12-20T21:58:29.747Z,-28.3
2022-12-20T22:00:31.405Z,-28.2
2022-12-20T22:02:32.878Z,-28.3
2022-12-20T22:04:34.802Z,-28.3
2022-12-20T22:06:36.352Z,-28.3
2022-12-20T22:12:40.378Z,-28.4
2022-12-20T22:14:41.907Z,-28
2022-12-20T22:16:43.897Z,-28
2022-12-20T22:18:45.212Z,-28.2
2022-12-20T22:20:46.946Z,-28.2
2022-12-20T22:22:48.517Z,-28.4
2022-12-20T22:24:50.162Z,-28.3
2022-12-20T22:26:51.290Z,-28.1
2022-12-20T22:28:52.806Z,-28.4
2022-12-20T22:30:54.467Z,-28.2
2022-12-20T22:32:55.737Z,-28.1
2022-12-20T22:34:56.822Z,-28.3
2022-12-20T22:36:58.639Z,-28.2
2022-12-20T22:38:59.969Z,-28.4
2022-12-20T22:41:01.194Z,-27.9
2022-12-20T22:43:02.924Z,-28.3
2022-12-20T22:45:04.981Z,-27.9
2022-12-20T22:47:06.494Z,-28
2022-12-20T22:49:07.508Z,-27.9
2022-12-20T22:51:09.483Z,-28.5
2022-12-20T22:53:11.022Z,-28.1
2022-12-20T22:55:12.355Z,-28.4
2022-12-20T22:57:14.000Z,-28.1
2022-12-20T22:59:15.223Z,-28.2
2022-12-20T23:01:17.008Z,-28.4
2022-12-20T23:03:18.741Z,-28.2
2022-12-20T23:05:20.179Z,-28
2022-12-20T23:09:23.338Z,-28.2
2022-12-20T23:11:24.689Z,-28.4
2022-12-20T23:13:26.560Z,-28.2
2022-12-20T23:15:28.481Z,-28.2
2022-12-20T23:17:29.700Z,-27.9
2022-12-20T23:19:31.681Z,-28
2022-12-20T23:21:33.201Z,-28.4
2022-12-20T23:23:34.449Z,-28.3
2022-12-20T23:25:36.318Z,-28.1
2022-12-20T23:27:37.387Z,-28.2
2022-12-20T23:31:40.571Z,-28.2
2022-12-20T23:33:42.492Z,-28.2
2022-12-20T23:35:43.717Z,-28.4
2022-12-20T23:37:45.341Z,-28.2
2022-12-20T23:39:46.974Z,-28.1
2022-12-20T23:41:48.254Z,-28.4
2022-12-20T23:43:50.147Z,-28.3
2022-12-20T23:45:51.568Z,-28.4
2022-12-20T23:47:52.521Z,-28.2
2022-12-20T23:51:56.348Z,-28.4
2022-12-20T23:53:58.262Z,-28.2
2022-12-20T23:55:59.438Z,-28.4
2022-12-20T23:58:01.475Z,-29.5
